Time;durP1;ratioP1;P1;durP2;ratioP2;P2;SDS_P1;SDS_P2;PMS_P1;PMS_P2;Temp;Humidity;BMP_temperature;BMP_pressure;BME280_temperature;BME280_humidity;BME280_pressure;Samples;Min_cycle;Max_cycle;Signal;HPM_P1;HPM_P2
2023/03/23 00:01:40;;;;;;;;;;;;;;;;;;;;;
2023/03/23 00:07:12;;;;;;;20.35;15.88;;;;;;;;;;5061642;28;20499;-75
2023/03/23 00:09:41;;;;;;;23.70;16.67;;;;;;;;;;5050624;28;20036;-75
2023/03/23 00:12:15;;;;;;;22.10;17.13;;;;;;;;;;5051391;28;20481;-76
2023/03/23 00:28:35;;;;;;;24.08;16.38;;;;;;;;;;4773262;29;20055;-74
2023/03/23 00:31:21;;;;;;;23.05;15.65;;;;;;;;;;4771740;30;20066;-75
2023/03/23 00:34:06;;;;;;;20.13;14.95;;;;;;;;;;4847281;29;20547;-74
2023/03/23 00:36:44;;;;;;;16.42;10.45;;;;;;;;;;4859126;29;20076;-74
2023/03/23 00:39:28;;;;;;;12.07;7.35;;;;;;;;;;4911478;28;20101;-75
2023/03/23 00:42:03;;;;;;;8.98;4.07;;;;;;;;;;4974648;28;20035;-75
2023/03/23 00:44:36;;;;;;;3.42;2.25;;;;;;;;;;5007330;28;20040;-74
2023/03/23 00:47:34;;;;;;;3.35;1.90;;;;;;;;;;5065867;28;20045;-74
2023/03/23 00:53:46;;;;;;;2.63;1.80;;;;;;;;;;5005695;28;20398;-74
2023/03/23 00:56:26;;;;;;;6.38;2.42;;;;;;;;;;5061252;28;20108;-75
2023/03/23 00:58:52;;;;;;;3.47;2.10;;;;;;;;;;5051493;28;20083;-74
2023/03/23 01:01:21;;;;;;;4.22;2.67;;;;;;;;;;5050957;28;20477;-74
2023/03/23 01:03:59;;;;;;;;;;;;;;;;;;;;;
2023/03/23 01:06:25;;;;;;;8.60;4.35;;;;;;;;;;5038627;28;20041;-75
2023/03/23 01:09:03;;;;;;;;;;;;;;;;;;;;;
2023/03/23 01:11:32;;;;;;;8.68;4.78;;;;;;;;;;5046715;28;20128;-74
2023/03/23 01:14:22;;;;;;;8.02;5.53;;;;;;;;;;5060276;28;20029;-74
2023/03/23 01:17:11;;;;;;;8.90;5.43;;;;;;;;;;5050742;28;20480;-74
2023/03/23 01:26:13;;;;;;;12.95;6.47;;;;;;;;;;5041843;28;20056;-74
2023/03/23 01:28:42;;;;;;;13.98;7.55;;;;;;;;;;5051082;28;20449;-73
2023/03/23 01:31:11;;;;;;;14.85;8.30;;;;;;;;;;5032098;28;20477;-74
2023/03/23 01:33:37;;;;;;;13.95;8.50;;;;;;;;;;5062893;28;20037;-73
2023/03/23 01:36:05;;;;;;;15.57;7.32;;;;;;;;;;5045214;28;20033;-73
2023/03/23 01:38:31;;;;;;;13.25;7.90;;;;;;;;;;5066195;28;20033;-73
2023/03/23 01:41:00;;;;;;;15.60;7.55;;;;;;;;;;5047245;28;20036;-74
2023/03/23 01:43:27;;;;;;;13.52;7.00;;;;;;;;;;5049550;28;20032;-73
2023/03/23 01:46:15;;;;;;;16.05;7.43;;;;;;;;;;5049167;28;20041;-73
2023/03/23 01:48:46;;;;;;;13.48;6.10;;;;;;;;;;5042521;28;20117;-73
2023/03/23 01:54:03;;;;;;;15.02;7.32;;;;;;;;;;5046243;28;20488;-73
2023/03/23 01:56:40;;;;;;;9.93;6.03;;;;;;;;;;5051337;28;20033;-73
2023/03/23 01:59:13;;;;;;;9.88;6.35;;;;;;;;;;5049499;28;20082;-73
2023/03/23 02:01:44;;;;;;;;;;;;;;;;;;5065340;28;20122;-73
2023/03/23 02:04:11;;;;;;;11.07;5.13;;;;;;;;;;5057778;28;19970;-74
2023/03/23 02:06:44;;;;;;;8.95;6.13;;;;;;;;;;5064876;28;20487;-73
2023/03/23 02:09:31;;;;;;;8.27;6.00;;;;;;;;;;5045648;28;20079;-74
2023/03/23 02:11:58;;;;;;;10.68;5.60;;;;;;;;;;5042334;28;20561;-73
2023/03/23 02:14:24;;;;;;;9.30;5.55;;;;;;;;;;5042093;28;20489;-73
2023/03/23 02:17:13;;;;;;;10.55;5.72;;;;;;;;;;5050642;28;20068;-73
2023/03/23 02:19:51;;;;;;;12.23;5.85;;;;;;;;;;5042198;28;20037;-73
2023/03/23 02:22:55;;;;;;;12.07;5.28;;;;;;;;;;5051446;28;20037;-73
2023/03/23 02:25:33;;;;;;;12.60;5.07;;;;;;;;;;5002550;28;20080;-73
2023/03/23 02:28:18;;;;;;;13.43;4.72;;;;;;;;;;5042267;28;20543;-73
2023/03/23 02:30:53;;;;;;;9.85;5.05;;;;;;;;;;5042576;28;20051;-73
2023/03/23 02:33:19;;;;;;;9.80;5.20;;;;;;;;;;5042693;28;20037;-73
2023/03/23 02:35:57;;;;;;;12.40;6.78;;;;;;;;;;5045994;28;20025;-72
2023/03/23 02:38:29;;;;;;;11.52;5.30;;;;;;;;;;5047458;28;20123;-73
2023/03/23 02:40:55;;;;;;;13.70;5.90;;;;;;;;;;5049047;28;20022;-73
2023/03/23 02:43:23;;;;;;;10.35;5.10;;;;;;;;;;5064485;28;20106;-72
2023/03/23 02:45:50;;;;;;;9.52;5.28;;;;;;;;;;5047424;28;20477;-73
2023/03/23 02:48:17;;;;;;;11.25;4.97;;;;;;;;;;5044026;28;20033;-73
2023/03/23 02:50:45;;;;;;;9.75;4.95;;;;;;;;;;5041351;28;20075;-73
2023/03/23 02:53:13;;;;;;;11.68;5.15;;;;;;;;;;5049833;28;20029;-74
2023/03/23 02:55:41;;;;;;;11.10;5.13;;;;;;;;;;5046017;28;20032;-73
2023/03/23 02:58:08;;;;;;;13.70;5.13;;;;;;;;;;5051037;28;20291;-74
2023/03/23 03:00:34;;;;;;;9.20;4.55;;;;;;;;;;5047769;28;20024;-73
2023/03/23 03:03:02;;;;;;;8.63;4.60;;;;;;;;;;5050420;28;20033;-73
2023/03/23 03:05:47;;;;;;;10.00;4.68;;;;;;;;;;5053148;28;20539;-73
2023/03/23 03:08:13;;;;;;;14.25;4.95;;;;;;;;;;5050917;28;20071;-74
2023/03/23 03:10:51;;;;;;;10.90;5.40;;;;;;;;;;5047081;28;20095;-73
2023/03/23 03:13:29;;;;;;;10.93;4.95;;;;;;;;;;5041647;28;20037;-73
2023/03/23 03:16:00;;;;;;;10.30;4.47;;;;;;;;;;5043731;28;20086;-73
2023/03/23 03:18:50;;;;;;;9.20;4.53;;;;;;;;;;5050054;28;20386;-73
2023/03/23 03:21:25;;;;;;;9.05;4.15;;;;;;;;;;5043219;28;20037;-73
2023/03/23 03:23:53;;;;;;;9.20;4.50;;;;;;;;;;5050970;28;20017;-73
2023/03/23 03:26:20;;;;;;;9.77;4.63;;;;;;;;;;5051708;28;20044;-73
2023/03/23 03:28:47;;;;;;;9.90;4.57;;;;;;;;;;5053016;28;20111;-73
2023/03/23 03:31:14;;;;;;;14.25;5.45;;;;;;;;;;5052038;28;20032;-74
2023/03/23 03:33:40;;;;;;;7.88;4.55;;;;;;;;;;5049974;28;20040;-73
2023/03/23 03:36:10;;;;;;;12.35;4.65;;;;;;;;;;5050827;28;20120;-75
2023/03/23 03:38:43;;;;;;;9.75;4.82;;;;;;;;;;5051151;28;20327;-74
2023/03/23 03:41:12;;;;;;;10.95;5.57;;;;;;;;;;5066400;28;20496;-75
2023/03/23 03:43:38;;;;;;;18.27;6.05;;;;;;;;;;5050504;28;20029;-75
2023/03/23 03:46:13;;;;;;;14.27;6.43;;;;;;;;;;5053068;28;20037;-75
2023/03/23 03:48:39;;;;;;;7.88;4.03;;;;;;;;;;5045340;28;20025;-74
2023/03/23 03:51:11;;;;;;;11.27;4.70;;;;;;;;;;5048009;28;20603;-75
2023/03/23 03:53:37;;;;;;;11.18;4.20;;;;;;;;;;5032843;28;20044;-75
2023/03/23 03:56:07;;;;;;;6.50;3.95;;;;;;;;;;5051504;28;20028;-75
2023/03/23 03:58:35;;;;;;;7.03;3.85;;;;;;;;;;5053635;28;20496;-74
2023/03/23 04:01:02;;;;;;;8.25;3.10;;;;;;;;;;5049028;28;20025;-75
2023/03/23 04:03:31;;;;;;;8.63;3.20;;;;;;;;;;5035482;28;20389;-74
2023/03/23 04:06:02;;;;;;;6.38;3.78;;;;;;;;;;5058303;28;20382;-75
2023/03/23 04:08:29;;;;;;;6.43;2.83;;;;;;;;;;5053876;28;20041;-77
2023/03/23 04:10:55;;;;;;;11.35;3.58;;;;;;;;;;5060304;28;20057;-76
2023/03/23 04:22:35;;;;;;;17.02;3.58;;;;;;;;;;4987675;28;19917;-75
2023/03/23 04:28:23;;;;;;;9.95;3.70;;;;;;;;;;5000051;28;20056;-73
2023/03/23 04:30:52;;;;;;;8.27;2.63;;;;;;;;;;5003109;28;20021;-72
2023/03/23 04:33:18;;;;;;;7.70;2.45;;;;;;;;;;5015733;28;20115;-73
2023/03/23 04:35:45;;;;;;;12.00;2.60;;;;;;;;;;5042325;28;20033;-72
2023/03/23 04:38:12;;;;;;;6.45;2.17;;;;;;;;;;5050106;28;20500;-72
2023/03/23 04:40:39;;;;;;;9.07;2.20;;;;;;;;;;5051246;28;20110;-72
2023/03/23 04:43:06;;;;;;;11.00;3.50;;;;;;;;;;5052464;28;20078;-72
2023/03/23 04:45:33;;;;;;;15.98;3.47;;;;;;;;;;5050781;28;20037;-72
2023/03/23 04:48:01;;;;;;;14.02;4.13;;;;;;;;;;5052459;28;20037;-72
2023/03/23 04:50:32;;;;;;;6.68;3.13;;;;;;;;;;5049814;28;20583;-71
2023/03/23 04:53:04;;;;;;;16.27;4.00;;;;;;;;;;5047720;28;20029;-72
2023/03/23 04:55:31;;;;;;;14.07;3.47;;;;;;;;;;5052614;28;20029;-72
2023/03/23 04:58:01;;;;;;;11.60;4.03;;;;;;;;;;5059703;28;20045;-72
2023/03/23 05:00:29;;;;;;;6.55;3.38;;;;;;;;;;5031622;28;20033;-72
2023/03/23 05:02:55;;;;;;;20.33;8.18;;;;;;;;;;5047904;28;20041;-74
2023/03/23 05:05:22;;;;;;;10.32;3.92;;;;;;;;;;5052128;28;20021;-73
2023/03/23 05:07:48;;;;;;;14.13;4.50;;;;;;;;;;5050007;28;20510;-72
2023/03/23 05:10:15;;;;;;;13.38;3.15;;;;;;;;;;5062741;28;20033;-72
2023/03/23 05:12:42;;;;;;;18.15;4.07;;;;;;;;;;5050909;28;20053;-72
2023/03/23 05:15:11;;;;;;;15.43;3.88;;;;;;;;;;5052504;28;20039;-73
2023/03/23 05:17:38;;;;;;;19.45;3.80;;;;;;;;;;5043300;28;20082;-72
2023/03/23 05:20:10;;;;;;;29.38;4.50;;;;;;;;;;5045209;28;20021;-71
2023/03/23 05:22:36;;;;;;;14.05;3.38;;;;;;;;;;5051995;28;20059;-72
2023/03/23 05:25:03;;;;;;;15.18;2.95;;;;;;;;;;5050083;28;20045;-72
2023/03/23 05:27:30;;;;;;;27.85;4.82;;;;;;;;;;5044900;28;20056;-72
2023/03/23 05:29:58;;;;;;;20.27;3.78;;;;;;;;;;5048747;28;20458;-71
2023/03/23 05:32:29;;;;;;;25.77;4.35;;;;;;;;;;5051886;28;20036;-71
2023/03/23 05:35:04;;;;;;;26.08;5.80;;;;;;;;;;5049160;28;20028;-72
2023/03/23 05:37:33;;;;;;;18.48;3.63;;;;;;;;;;5044959;28;20414;-71
2023/03/23 05:40:04;;;;;;;28.17;5.80;;;;;;;;;;5048323;28;20104;-72
2023/03/23 05:42:31;;;;;;;24.63;4.18;;;;;;;;;;5049282;28;20036;-73
2023/03/23 05:44:58;;;;;;;21.48;4.45;;;;;;;;;;5049280;28;20071;-72
2023/03/23 05:47:25;;;;;;;31.83;5.65;;;;;;;;;;5051122;28;20028;-72
2023/03/23 05:49:51;;;;;;;31.55;3.95;;;;;;;;;;5051186;28;20028;-72
2023/03/23 05:52:18;;;;;;;25.25;5.00;;;;;;;;;;5047401;28;20040;-71
2023/03/23 05:54:44;;;;;;;28.52;4.18;;;;;;;;;;5047506;28;20048;-71
2023/03/23 05:57:10;;;;;;;23.25;3.83;;;;;;;;;;5052168;28;20082;-71
2023/03/23 05:59:37;;;;;;;28.95;4.30;;;;;;;;;;5047736;28;20025;-72
2023/03/23 06:02:03;;;;;;;22.95;4.85;;;;;;;;;;5045523;28;20025;-72
2023/03/23 06:04:29;;;;;;;35.22;6.85;;;;;;;;;;5052916;28;20139;-74
2023/03/23 06:06:56;;;;;;;57.38;26.08;;;;;;;;;;5066860;28;20050;-73
2023/03/23 06:18:02;;;;;;;27.70;5.40;;;;;;;;;;5049432;28;20461;-72
2023/03/23 06:20:28;;;;;;;23.48;4.95;;;;;;;;;;5045059;28;20057;-72
2023/03/23 06:22:57;;;;;;;23.63;5.38;;;;;;;;;;5044397;28;20021;-72
2023/03/23 06:25:24;;;;;;;24.85;4.15;;;;;;;;;;5048439;28;20424;-71
2023/03/23 06:27:53;;;;;;;16.83;2.40;;;;;;;;;;5051045;28;20033;-72
2023/03/23 06:30:26;;;;;;;12.27;2.55;;;;;;;;;;5044518;28;20469;-72
2023/03/23 06:32:53;;;;;;;17.25;3.10;;;;;;;;;;5048475;28;20381;-72
2023/03/23 06:35:19;;;;;;;10.88;1.67;;;;;;;;;;5016062;28;20041;-73
2023/03/23 06:37:49;;;;;;;9.85;2.85;;;;;;;;;;5044881;28;20043;-73
2023/03/23 06:40:18;;;;;;;12.88;2.63;;;;;;;;;;5050938;28;20029;-72
2023/03/23 06:42:44;;;;;;;12.68;2.60;;;;;;;;;;5049480;28;20032;-72
2023/03/23 06:45:10;;;;;;;10.32;2.42;;;;;;;;;;5048682;28;20028;-73
2023/03/23 06:47:37;;;;;;;24.17;3.65;;;;;;;;;;5049651;28;20033;-73
2023/03/23 06:50:07;;;;;;;24.20;3.70;;;;;;;;;;5050092;28;20056;-73
2023/03/23 06:52:33;;;;;;;30.08;4.50;;;;;;;;;;5045685;28;20477;-72
2023/03/23 06:55:05;;;;;;;29.90;4.30;;;;;;;;;;5044719;28;20021;-73
2023/03/23 06:57:35;;;;;;;24.35;4.00;;;;;;;;;;5048700;28;20127;-73
2023/03/23 07:00:04;;;;;;;34.58;6.07;;;;;;;;;;5029940;28;20033;-73
2023/03/23 07:02:35;;;;;;;29.95;5.80;;;;;;;;;;5046963;28;20041;-72
2023/03/23 07:05:25;;;;;;;30.25;4.50;;;;;;;;;;5047859;28;20065;-73
2023/03/23 07:08:26;;;;;;;24.88;4.68;;;;;;;;;;5048445;28;20159;-73
2023/03/23 07:11:17;;;;;;;36.22;6.60;;;;;;;;;;5033530;28;20041;-73
2023/03/23 07:13:58;;;;;;;28.70;4.97;;;;;;;;;;5029682;28;20021;-73
2023/03/23 07:16:26;;;;;;;24.25;5.05;;;;;;;;;;5027973;28;20052;-73
2023/03/23 07:18:59;;;;;;;25.63;4.78;;;;;;;;;;5025199;28;20385;-72
2023/03/23 07:21:25;;;;;;;31.25;5.60;;;;;;;;;;5050817;28;20029;-73
2023/03/23 07:23:52;;;;;;;27.65;5.10;;;;;;;;;;5014252;28;20380;-73
2023/03/23 07:26:18;;;;;;;35.85;6.63;;;;;;;;;;5007766;28;20422;-72
2023/03/23 07:28:45;;;;;;;32.47;6.82;;;;;;;;;;5008770;28;20058;-73
2023/03/23 07:31:11;;;;;;;31.92;5.45;;;;;;;;;;5027661;28;20061;-72
2023/03/23 07:33:38;;;;;;;33.70;5.90;;;;;;;;;;5022169;28;20104;-72
2023/03/23 07:36:07;;;;;;;35.83;6.88;;;;;;;;;;5033493;28;20108;-72
2023/03/23 07:38:37;;;;;;;29.45;4.65;;;;;;;;;;5032618;28;20037;-72
2023/03/23 07:41:12;;;;;;;22.23;5.47;;;;;;;;;;5030322;28;20025;-73
2023/03/23 07:43:54;;;;;;;19.98;4.88;;;;;;;;;;5027272;28;20017;-72
2023/03/23 07:46:23;;;;;;;36.88;6.28;;;;;;;;;;5030681;28;20044;-72
2023/03/23 07:48:49;;;;;;;40.15;6.28;;;;;;;;;;5028744;28;20072;-72
2023/03/23 07:51:18;;;;;;;30.65;6.22;;;;;;;;;;5030434;28;20097;-72
2023/03/23 07:53:47;;;;;;;30.63;4.18;;;;;;;;;;5011629;28;20083;-73
2023/03/23 07:56:19;;;;;;;28.88;5.00;;;;;;;;;;5030651;28;20029;-73
2023/03/23 07:58:45;;;;;;;30.92;4.68;;;;;;;;;;5028650;28;20041;-72
2023/03/23 08:01:12;;;;;;;32.63;4.70;;;;;;;;;;4995051;28;20026;-73
2023/03/23 08:03:59;;;;;;;32.45;6.25;;;;;;;;;;5032272;28;20018;-72
2023/03/23 08:10:17;;;;;;;32.40;6.10;;;;;;;;;;5033430;28;20387;-73
2023/03/23 08:16:18;;;;;;;37.22;6.13;;;;;;;;;;5051715;28;20519;-72
2023/03/23 08:18:45;;;;;;;37.40;5.57;;;;;;;;;;5046909;28;20040;-72
2023/03/23 08:21:14;;;;;;;35.30;5.72;;;;;;;;;;5052131;28;20047;-73
2023/03/23 08:23:41;;;;;;;34.55;6.28;;;;;;;;;;5051950;28;20389;-72
2023/03/23 08:26:11;;;;;;;36.78;6.20;;;;;;;;;;5049238;28;20094;-73
2023/03/23 08:28:43;;;;;;;34.08;7.63;;;;;;;;;;5052805;28;20074;-72
2023/03/23 08:31:27;;;;;;;34.60;6.85;;;;;;;;;;5050379;28;20104;-73
2023/03/23 08:33:57;;;;;;;40.88;6.97;;;;;;;;;;5050298;28;20462;-72
2023/03/23 08:36:27;;;;;;;34.92;5.68;;;;;;;;;;5053064;28;20036;-72
2023/03/23 08:38:53;;;;;;;37.25;6.80;;;;;;;;;;5053026;28;20033;-72
2023/03/23 08:41:19;;;;;;;35.03;6.53;;;;;;;;;;5063814;28;20028;-72
2023/03/23 08:43:46;;;;;;;32.92;6.72;;;;;;;;;;5051933;28;20373;-72
2023/03/23 08:46:20;;;;;;;45.85;7.70;;;;;;;;;;5050307;28;20041;-73
2023/03/23 08:48:47;;;;;;;38.33;6.50;;;;;;;;;;5056285;28;20366;-72
2023/03/23 08:51:13;;;;;;;37.67;7.32;;;;;;;;;;5054686;28;20052;-73
2023/03/23 08:53:45;;;;;;;38.72;7.07;;;;;;;;;;5050543;28;20029;-72
2023/03/23 08:56:12;;;;;;;21.33;5.00;;;;;;;;;;5052370;28;20525;-73
2023/03/23 08:58:45;;;;;;;28.30;5.90;;;;;;;;;;5051363;28;20049;-73
2023/03/23 09:01:11;;;;;;;36.28;5.97;;;;;;;;;;5050542;28;20116;-73
2023/03/23 09:03:39;;;;;;;35.22;5.30;;;;;;;;;;5047405;28;20028;-72
2023/03/23 09:06:06;;;;;;;30.13;5.72;;;;;;;;;;5050550;28;20021;-73
2023/03/23 09:08:32;;;;;;;30.02;5.78;;;;;;;;;;5048719;28;20478;-73
2023/03/23 09:10:59;;;;;;;28.63;5.28;;;;;;;;;;5049361;28;20029;-74
2023/03/23 09:13:32;;;;;;;31.23;6.10;;;;;;;;;;5045416;28;20049;-74
2023/03/23 09:15:58;;;;;;;;;;;;;;;;;;5051999;28;20073;-73
2023/03/23 09:18:24;;;;;;;28.80;6.15;;;;;;;;;;5052515;28;20448;-73
2023/03/23 09:21:00;;;;;;;32.15;6.50;;;;;;;;;;5035666;28;20026;-74
2023/03/23 09:23:32;;;;;;;34.33;7.28;;;;;;;;;;5060880;28;20085;-73
2023/03/23 09:26:04;;;;;;;29.45;5.95;;;;;;;;;;5044732;28;20053;-73
2023/03/23 09:41:31;;;;;;;26.15;5.78;;;;;;;;;;5037085;28;20072;-75
2023/03/23 09:47:34;;;;;;;29.80;6.00;;;;;;;;;;5036988;28;20127;-75
2023/03/23 09:50:12;;;;;;;33.85;6.45;;;;;;;;;;5031089;28;20571;-74
2023/03/23 09:52:50;;;;;;;23.75;5.45;;;;;;;;;;5041886;28;20500;-74
2023/03/23 09:55:17;;;;;;;26.95;5.30;;;;;;;;;;5066873;28;20031;-73
2023/03/23 09:58:02;;;;;;;59.17;29.35;;;;;;;;;;5039466;28;20560;-75
2023/03/23 10:00:42;;;;;;;35.47;9.13;;;;;;;;;;5055600;28;20043;-74
2023/03/23 10:03:19;;;;;;;25.52;4.75;;;;;;;;;;5040368;28;20035;-73
2023/03/23 10:05:58;;;;;;;32.65;6.43;;;;;;;;;;5056083;28;20493;-72
2023/03/23 10:08:31;;;;;;;27.27;5.82;;;;;;;;;;5065088;28;20079;-73
2023/03/23 10:14:30;;;;;;;31.83;5.68;;;;;;;;;;4989990;28;20050;-73
2023/03/23 10:17:04;;;;;;;32.03;5.38;;;;;;;;;;5017964;28;20041;-73
2023/03/23 10:19:33;;;;;;;32.55;6.85;;;;;;;;;;5004423;28;20029;-72
2023/03/23 10:22:03;;;;;;;28.80;5.38;;;;;;;;;;5018414;28;20018;-74
2023/03/23 10:24:49;;;;;;;33.63;5.05;;;;;;;;;;5024592;28;20045;-73
2023/03/23 10:27:27;;;;;;;24.55;5.13;;;;;;;;;;5036227;28;20555;-73
2023/03/23 10:29:58;;;;;;;26.95;5.00;;;;;;;;;;5026512;28;20565;-74
2023/03/23 10:32:38;;;;;;;28.13;5.30;;;;;;;;;;5007762;28;20091;-73
2023/03/23 10:35:12;;;;;;;25.27;5.75;;;;;;;;;;5011432;28;20041;-74
2023/03/23 10:37:41;;;;;;;29.50;5.38;;;;;;;;;;5010438;28;20462;-75
2023/03/23 10:40:16;;;;;;;27.42;5.25;;;;;;;;;;5008978;28;20477;-73
2023/03/23 10:42:43;;;;;;;21.77;4.28;;;;;;;;;;5030087;28;20041;-73
2023/03/23 10:45:12;;;;;;;31.25;6.28;;;;;;;;;;5015666;28;20033;-74
2023/03/23 10:47:40;;;;;;;21.67;4.65;;;;;;;;;;5030240;28;20414;-73
2023/03/23 10:50:28;;;;;;;24.17;5.18;;;;;;;;;;5020724;28;20383;-74
2023/03/23 10:53:15;;;;;;;27.98;7.25;;;;;;;;;;5009346;28;20045;-75
2023/03/23 10:58:40;;;;;;;21.95;4.25;;;;;;;;;;4948040;28;20034;-73
2023/03/23 11:01:12;;;;;;;16.02;4.00;;;;;;;;;;4998698;28;20038;-74
2023/03/23 11:03:48;;;;;;;17.55;4.32;;;;;;;;;;5009543;28;20115;-74
2023/03/23 11:09:36;;;;;;;22.20;4.60;;;;;;;;;;4992339;28;20577;-73
2023/03/23 11:12:02;;;;;;;25.38;4.47;;;;;;;;;;5020827;28;20052;-74
2023/03/23 11:14:30;;;;;;;27.45;5.18;;;;;;;;;;5030214;28;20094;-74
2023/03/23 11:16:57;;;;;;;23.92;4.30;;;;;;;;;;5035977;28;20034;-75
2023/03/23 11:22:21;;;;;;;20.77;5.25;;;;;;;;;;5015390;28;20489;-74
2023/03/23 11:24:48;;;;;;;23.02;3.72;;;;;;;;;;5008820;28;20667;-73
2023/03/23 11:27:15;;;;;;;14.63;3.92;;;;;;;;;;5016632;28;20535;-74
2023/03/23 11:29:54;;;;;;;20.40;3.92;;;;;;;;;;5028432;28;20029;-73
2023/03/23 11:32:22;;;;;;;15.32;3.72;;;;;;;;;;5017495;28;20054;-73
2023/03/23 11:34:49;;;;;;;23.55;5.05;;;;;;;;;;5027369;28;20065;-73
2023/03/23 11:37:26;;;;;;;21.85;4.07;;;;;;;;;;5014765;28;20033;-74
2023/03/23 11:40:00;;;;;;;20.10;4.28;;;;;;;;;;5006096;28;20121;-73
2023/03/23 11:42:34;;;;;;;19.67;5.00;;;;;;;;;;5004910;28;20432;-73
2023/03/23 11:45:16;;;;;;;23.73;6.03;;;;;;;;;;5033933;28;20474;-74
2023/03/23 11:48:04;;;;;;;16.73;4.22;;;;;;;;;;5026142;28;20124;-74
2023/03/23 11:50:35;;;;;;;23.08;4.13;;;;;;;;;;5031020;28;20389;-74
2023/03/23 11:53:08;;;;;;;14.95;3.88;;;;;;;;;;4998675;28;20037;-74
2023/03/23 11:55:34;;;;;;;;;;;;;;;;;;5016485;28;20093;-74
2023/03/23 11:58:05;;;;;;;19.48;4.07;;;;;;;;;;5026413;28;19924;-75
2023/03/23 12:00:31;;;;;;;16.42;4.50;;;;;;;;;;5022424;28;20053;-74
2023/03/23 12:03:16;;;;;;;16.48;3.83;;;;;;;;;;5007078;28;20030;-73
2023/03/23 12:05:46;;;;;;;19.50;3.67;;;;;;;;;;5023753;28;20056;-73
2023/03/23 12:08:29;;;;;;;18.55;3.63;;;;;;;;;;5013020;28;20064;-74
2023/03/23 12:11:18;;;;;;;21.70;3.83;;;;;;;;;;5022883;28;20030;-74
2023/03/23 12:13:52;;;;;;;15.15;3.88;;;;;;;;;;5035163;28;20057;-73
2023/03/23 12:16:33;;;;;;;17.42;3.75;;;;;;;;;;5051613;28;20039;-73
2023/03/23 12:19:05;;;;;;;22.75;4.95;;;;;;;;;;5062837;28;20439;-73
2023/03/23 12:21:40;;;;;;;19.55;4.18;;;;;;;;;;5041539;28;20162;-72
2023/03/23 12:24:25;;;;;;;18.35;4.70;;;;;;;;;;5046582;28;20081;-74
2023/03/23 12:27:16;;;;;;;23.50;4.60;;;;;;;;;;5053070;28;21012;-73
2023/03/23 12:42:42;;;;;;;15.57;3.53;;;;;;;;;;4984496;28;20118;-73
2023/03/23 12:45:22;;;;;;;17.00;4.18;;;;;;;;;;4990264;28;20391;-74
2023/03/23 12:47:52;;;;;;;29.58;10.02;;;;;;;;;;5003300;28;20041;-74
2023/03/23 12:50:48;;;;;;;14.90;3.72;;;;;;;;;;5046190;28;20370;-74
2023/03/23 12:53:36;;;;;;;26.30;4.78;;;;;;;;;;5042393;28;20033;-73
2023/03/23 12:56:21;;;;;;;21.90;4.25;;;;;;;;;;5062753;28;20465;-74
2023/03/23 13:11:47;;;;;;;23.42;4.07;;;;;;;;;;5033730;28;20064;-74
2023/03/23 13:14:20;;;;;;;20.73;3.95;;;;;;;;;;5059225;28;20041;-73
2023/03/23 13:16:55;;;;;;;19.67;5.03;;;;;;;;;;5040846;28;20087;-76
2023/03/23 13:19:21;;;;;;;14.50;3.55;;;;;;;;;;5042932;28;20061;-76
2023/03/23 13:22:03;;;;;;;20.40;5.80;;;;;;;;;;5048841;28;20079;-73
2023/03/23 13:24:35;;;;;;;28.67;4.65;;;;;;;;;;5059766;28;20163;-73
2023/03/23 13:27:01;;;;;;;20.33;3.53;;;;;;;;;;5033600;28;20049;-72
2023/03/23 13:29:31;;;;;;;20.13;4.15;;;;;;;;;;5044297;28;20486;-73
2023/03/23 13:32:11;;;;;;;17.48;3.92;;;;;;;;;;5042846;28;20033;-74
2023/03/23 13:34:37;;;;;;;22.60;4.20;;;;;;;;;;5049026;28;20401;-73
2023/03/23 13:37:21;;;;;;;23.65;4.38;;;;;;;;;;5037735;28;20035;-74
2023/03/23 13:39:50;;;;;;;16.20;3.63;;;;;;;;;;5047690;28;20116;-74
2023/03/23 13:42:16;;;;;;;16.40;3.83;;;;;;;;;;5049407;28;20029;-73
2023/03/23 13:44:43;;;;;;;18.13;3.88;;;;;;;;;;5048421;28;20401;-74
2023/03/23 13:47:19;;;;;;;21.17;4.15;;;;;;;;;;5034455;28;20037;-74
2023/03/23 13:49:52;;;;;;;16.05;3.92;;;;;;;;;;5066268;28;20063;-73
2023/03/23 13:52:23;;;;;;;20.95;3.60;;;;;;;;;;5050129;28;20090;-73
2023/03/23 13:54:51;;;;;;;21.30;4.20;;;;;;;;;;5046709;28;20044;-73
2023/03/23 13:57:37;;;;;;;22.88;3.55;;;;;;;;;;5049784;28;20112;-75
2023/03/23 14:00:26;;;;;;;18.52;4.80;;;;;;;;;;5067161;28;20040;-73
2023/03/23 14:02:52;;;;;;;21.52;4.45;;;;;;;;;;5059862;28;20070;-74
2023/03/23 14:05:18;;;;;;;24.30;4.47;;;;;;;;;;5047137;28;20430;-74
2023/03/23 14:07:55;;;;;;;16.05;2.97;;;;;;;;;;5045330;28;20029;-75
2023/03/23 14:10:21;;;;;;;14.35;3.67;;;;;;;;;;5044924;28;20044;-74
2023/03/23 14:12:50;;;;;;;20.38;3.20;;;;;;;;;;5059899;28;20025;-73
2023/03/23 14:15:17;;;;;;;20.00;3.38;;;;;;;;;;5044418;28;20458;-73
2023/03/23 14:17:44;;;;;;;14.60;3.17;;;;;;;;;;5060046;28;20021;-73
2023/03/23 14:20:20;;;;;;;21.15;4.13;;;;;;;;;;5044661;28;20116;-74
2023/03/23 14:22:46;;;;;;;19.30;3.38;;;;;;;;;;5066333;28;20376;-74
2023/03/23 14:25:14;;;;;;;15.07;2.95;;;;;;;;;;5032946;28;20025;-73
2023/03/23 14:27:43;;;;;;;11.88;3.85;;;;;;;;;;5051847;28;20036;-73
2023/03/23 14:30:14;;;;;;;16.13;2.97;;;;;;;;;;5049670;28;20097;-75
2023/03/23 14:32:41;;;;;;;14.90;3.63;;;;;;;;;;5066530;28;20029;-73
2023/03/23 14:35:27;;;;;;;12.40;3.00;;;;;;;;;;5068795;28;20423;-74
2023/03/23 14:37:54;;;;;;;13.88;2.97;;;;;;;;;;5043704;28;20041;-73
2023/03/23 14:40:21;;;;;;;16.55;2.80;;;;;;;;;;5047341;28;20034;-73
2023/03/23 14:42:47;;;;;;;11.93;2.83;;;;;;;;;;5050418;28;20024;-74
2023/03/23 14:45:15;;;;;;;15.23;3.03;;;;;;;;;;5068598;28;20027;-74
2023/03/23 14:48:03;;;;;;;14.32;3.22;;;;;;;;;;5062059;28;20032;-73
2023/03/23 14:50:31;;;;;;;11.25;2.95;;;;;;;;;;5048437;28;20516;-73
2023/03/23 14:53:03;;;;;;;11.48;2.10;;;;;;;;;;5047963;28;20567;-73
2023/03/23 14:55:31;;;;;;;18.75;4.03;;;;;;;;;;5049366;28;20040;-73
2023/03/23 14:58:07;;;;;;;17.00;4.35;;;;;;;;;;5048678;28;20025;-75
2023/03/23 15:00:35;;;;;;;13.80;2.75;;;;;;;;;;5044900;28;20377;-75
2023/03/23 15:03:03;;;;;;;12.25;2.80;;;;;;;;;;5052403;28;20025;-75
2023/03/23 15:05:31;;;;;;;21.60;4.63;;;;;;;;;;5057816;28;20037;-76
2023/03/23 15:08:01;;;;;;;18.27;4.03;;;;;;;;;;5044450;28;20068;-76
2023/03/23 15:10:27;;;;;;;18.17;3.70;;;;;;;;;;5038863;28;20037;-75
2023/03/23 15:12:57;;;;;;;14.40;3.58;;;;;;;;;;5063558;28;20057;-75
2023/03/23 15:15:34;;;;;;;18.15;3.38;;;;;;;;;;5045625;28;20048;-73
2023/03/23 15:18:01;;;;;;;13.25;3.83;;;;;;;;;;5069323;28;20037;-76
2023/03/23 15:20:32;;;;;;;18.05;4.13;;;;;;;;;;5068255;28;20036;-75
2023/03/23 15:23:06;;;;;;;16.70;3.47;;;;;;;;;;5053233;28;20351;-75
2023/03/23 15:25:33;;;;;;;20.77;3.65;;;;;;;;;;5068759;28;20353;-75
2023/03/23 15:28:05;;;;;;;26.20;4.55;;;;;;;;;;5050086;28;20079;-74
2023/03/23 15:30:33;;;;;;;20.33;3.63;;;;;;;;;;5052541;28;20032;-73
2023/03/23 15:33:09;;;;;;;19.52;4.80;;;;;;;;;;5053644;28;20032;-75
2023/03/23 15:35:37;;;;;;;19.15;4.43;;;;;;;;;;5073205;28;20021;-74
2023/03/23 15:38:05;;;;;;;18.73;3.58;;;;;;;;;;5068008;28;20040;-74
2023/03/23 15:40:36;;;;;;;21.25;4.93;;;;;;;;;;5069588;28;20029;-73
2023/03/23 15:43:23;;;;;;;18.75;4.63;;;;;;;;;;5066580;28;20029;-74
2023/03/23 15:45:52;;;;;;;21.33;3.92;;;;;;;;;;5053454;28;20075;-74
2023/03/23 15:48:18;;;;;;;15.25;3.17;;;;;;;;;;5051233;28;20036;-75
2023/03/23 15:50:47;;;;;;;16.88;4.03;;;;;;;;;;5051481;28;20083;-74
2023/03/23 15:53:20;;;;;;;18.83;3.35;;;;;;;;;;5054052;28;20384;-74
2023/03/23 15:55:46;;;;;;;20.92;4.25;;;;;;;;;;5050647;28;20079;-74
2023/03/23 15:58:13;;;;;;;15.48;3.75;;;;;;;;;;5050383;28;20035;-74
2023/03/23 16:00:40;;;;;;;21.85;4.00;;;;;;;;;;5068823;28;20025;-74
2023/03/23 16:03:07;;;;;;;21.20;3.88;;;;;;;;;;5054306;28;20148;-75
2023/03/23 16:05:34;;;;;;;22.23;4.25;;;;;;;;;;5067066;28;20362;-75
2023/03/23 16:08:00;;;;;;;24.85;4.72;;;;;;;;;;5055502;28;20102;-76
2023/03/23 16:10:27;;;;;;;19.85;4.95;;;;;;;;;;5052306;28;20029;-74
2023/03/23 16:12:53;;;;;;;18.20;4.40;;;;;;;;;;5046580;28;21327;-74
2023/03/23 16:15:20;;;;;;;20.08;5.40;;;;;;;;;;5067067;28;20627;-74
2023/03/23 16:17:46;;;;;;;19.35;4.22;;;;;;;;;;5052177;28;20033;-73
2023/03/23 16:20:13;;;;;;;20.73;3.92;;;;;;;;;;5068913;28;20120;-73
2023/03/23 16:22:40;;;;;;;17.70;3.97;;;;;;;;;;5065770;28;20048;-73
2023/03/23 16:25:06;;;;;;;20.50;3.60;;;;;;;;;;5068955;28;20477;-74
2023/03/23 16:27:32;;;;;;;15.85;3.72;;;;;;;;;;5066534;28;20033;-73
2023/03/23 16:29:59;;;;;;;23.25;4.15;;;;;;;;;;5051635;28;20061;-74
2023/03/23 16:32:25;;;;;;;27.00;4.45;;;;;;;;;;5051029;28;20025;-73
2023/03/23 16:34:51;;;;;;;16.10;4.07;;;;;;;;;;5052236;28;20036;-73
2023/03/23 16:37:18;;;;;;;18.73;4.15;;;;;;;;;;5052846;28;20470;-73
2023/03/23 16:39:44;;;;;;;25.42;3.97;;;;;;;;;;5068175;28;20040;-73
2023/03/23 16:42:10;;;;;;;31.30;4.95;;;;;;;;;;5050825;28;20033;-75
2023/03/23 16:44:36;;;;;;;17.40;4.15;;;;;;;;;;5050537;28;20056;-73
2023/03/23 16:47:02;;;;;;;18.00;3.55;;;;;;;;;;5050195;28;20040;-74
2023/03/23 16:49:28;;;;;;;22.55;4.15;;;;;;;;;;5050171;28;20147;-73
2023/03/23 16:51:54;;;;;;;23.05;4.90;;;;;;;;;;5050266;28;20021;-74
2023/03/23 16:54:21;;;;;;;19.58;3.95;;;;;;;;;;5054758;28;20457;-74